Time;durP1;ratioP1;P1;durP2;ratioP2;P2;SDS_P1;SDS_P2;PMS_P1;PMS_P2;Temp;Humidity;BMP_temperature;BMP_pressure;BME280_temperature;BME280_humidity;BME280_pressure;Samples;Min_cycle;Max_cycle;Signal;HPM_P1;HPM_P2
2021/09/29 00:00:24;;;;;;;5.70;4.90;;;13.40;99.90;;;;;;4993823;28;20773;-72
2021/09/29 00:02:53;;;;;;;5.07;4.57;;;13.40;99.90;;;;;;4999746;28;20245;-71
2021/09/29 00:05:21;;;;;;;6.87;4.43;;;13.40;99.90;;;;;;4999904;28;20791;-71
2021/09/29 00:07:49;;;;;;;6.90;4.70;;;13.40;99.90;;;;;;5000123;28;20265;-72
2021/09/29 00:10:21;;;;;;;7.57;5.00;;;13.40;99.90;;;;;;4994613;28;20248;-72
2021/09/29 00:12:49;;;;;;;6.87;4.70;;;13.40;99.90;;;;;;4987168;28;20233;-73
2021/09/29 00:15:18;;;;;;;7.20;5.17;;;13.40;99.90;;;;;;4998268;28;20330;-72
2021/09/29 00:17:48;;;;;;;6.73;4.90;;;13.30;99.90;;;;;;4995319;28;20241;-72
2021/09/29 00:20:17;;;;;;;6.33;4.90;;;13.30;99.90;;;;;;4992471;28;20281;-72
2021/09/29 00:22:45;;;;;;;5.53;4.90;;;13.40;99.90;;;;;;4992250;28;20631;-72
2021/09/29 00:25:16;;;;;;;6.93;5.13;;;13.40;99.90;;;;;;4995376;28;20244;-71
2021/09/29 00:27:45;;;;;;;6.90;4.80;;;13.40;99.90;;;;;;4989175;28;20256;-72
2021/09/29 00:30:14;;;;;;;5.40;4.10;;;13.40;99.90;;;;;;4995875;28;20287;-72
2021/09/29 00:32:43;;;;;;;7.57;5.20;;;13.40;99.90;;;;;;4992277;28;20225;-72
2021/09/29 00:35:14;;;;;;;6.30;5.00;;;13.40;99.90;;;;;;4992017;28;20234;-72
2021/09/29 00:37:43;;;;;;;5.90;5.30;;;13.30;99.90;;;;;;5011659;28;20225;-72
2021/09/29 00:40:12;;;;;;;6.47;5.27;;;13.40;99.90;;;;;;4998359;28;20244;-72
2021/09/29 00:42:41;;;;;;;6.83;4.60;;;13.40;99.90;;;;;;4995724;28;20248;-71
2021/09/29 00:45:09;;;;;;;6.73;4.83;;;13.40;99.90;;;;;;4987620;28;20226;-71
2021/09/29 00:47:37;;;;;;;7.50;5.80;;;13.30;99.90;;;;;;4990111;28;20242;-72
2021/09/29 00:50:07;;;;;;;5.20;4.67;;;13.30;99.90;;;;;;4990051;28;20317;-72
2021/09/29 00:52:40;;;;;;;7.20;4.83;;;13.30;99.90;;;;;;4992270;28;20246;-72
2021/09/29 00:55:11;;;;;;;6.33;5.00;;;13.20;99.90;;;;;;4991607;28;20265;-72
2021/09/29 00:57:39;;;;;;;7.10;5.20;;;13.20;99.90;;;;;;4992946;28;20725;-72
2021/09/29 01:00:09;;;;;;;8.17;5.30;;;13.20;99.90;;;;;;4991977;28;20323;-71
2021/09/29 01:02:41;;;;;;;8.60;5.67;;;13.10;99.90;;;;;;4991393;28;20229;-71
2021/09/29 01:05:11;;;;;;;6.53;5.10;;;13.20;99.90;;;;;;4998614;28;20240;-72
2021/09/29 01:07:48;;;;;;;6.80;4.80;;;13.30;99.90;;;;;;4998566;28;20355;-72
2021/09/29 01:10:29;;;;;;;6.50;5.00;;;13.30;99.90;;;;;;4994978;28;20323;-72
2021/09/29 01:13:05;;;;;;;7.67;5.20;;;13.30;99.90;;;;;;4995812;28;20247;-72
2021/09/29 01:15:43;;;;;;;7.23;5.30;;;13.20;99.90;;;;;;4990331;28;20303;-71
2021/09/29 01:18:14;;;;;;;6.47;5.07;;;13.20;99.90;;;;;;4993676;28;20248;-72
2021/09/29 01:20:45;;;;;;;6.07;4.70;;;13.20;99.90;;;;;;4997871;28;20271;-72
2021/09/29 01:23:32;;;;;;;6.60;4.73;;;13.20;99.90;;;;;;4992262;28;20645;-72
2021/09/29 01:26:15;;;;;;;5.53;4.97;;;13.20;99.90;;;;;;4999304;28;20341;-71
2021/09/29 01:28:47;;;;;;;4.97;4.00;;;13.30;99.90;;;;;;4985552;28;20252;-72
2021/09/29 01:31:17;;;;;;;5.50;4.80;;;13.30;99.90;;;;;;4994867;28;20245;-71
2021/09/29 01:33:47;;;;;;;6.30;4.90;;;13.20;99.90;;;;;;4998052;28;20324;-72
2021/09/29 01:36:21;;;;;;;5.57;4.60;;;13.10;99.90;;;;;;4999131;28;20291;-72
2021/09/29 01:38:54;;;;;;;5.33;4.40;;;13.10;99.90;;;;;;4992541;28;20743;-71
2021/09/29 01:41:25;;;;;;;5.50;4.83;;;13.10;99.90;;;;;;4998351;28;20651;-71
2021/09/29 01:43:55;;;;;;;7.47;4.80;;;13.10;99.90;;;;;;4991668;28;20732;-71
2021/09/29 01:46:24;;;;;;;5.90;4.53;;;13.00;99.90;;;;;;4999991;28;20249;-71
2021/09/29 01:49:01;;;;;;;7.80;4.53;;;13.00;99.90;;;;;;4995948;28;20656;-71
2021/09/29 01:51:33;;;;;;;5.20;4.63;;;13.00;99.90;;;;;;5000868;28;20697;-72
2021/09/29 01:54:02;;;;;;;8.40;4.60;;;13.10;99.90;;;;;;4990268;28;20256;-72
2021/09/29 01:56:36;;;;;;;6.70;5.20;;;13.00;99.90;;;;;;4994221;28;20260;-72
2021/09/29 01:59:05;;;;;;;5.43;4.50;;;13.00;99.90;;;;;;4989741;28;20252;-72
2021/09/29 02:01:36;;;;;;;5.97;5.00;;;13.00;99.90;;;;;;4987287;28;20268;-72
2021/09/29 02:04:06;;;;;;;5.77;4.93;;;13.00;99.90;;;;;;4995018;28;20232;-72
2021/09/29 02:06:44;;;;;;;7.00;4.40;;;13.00;99.90;;;;;;4989670;28;20276;-72
2021/09/29 02:09:13;;;;;;;6.07;4.40;;;13.00;99.90;;;;;;4985766;28;21004;-72
2021/09/29 02:11:42;;;;;;;5.43;4.50;;;13.00;99.90;;;;;;4989037;28;20247;-71
2021/09/29 02:14:11;;;;;;;4.70;4.30;;;13.00;99.90;;;;;;4994898;28;20597;-72
2021/09/29 02:16:39;;;;;;;7.17;4.50;;;13.00;99.90;;;;;;4993865;28;20269;-71
2021/09/29 02:19:08;;;;;;;6.73;4.73;;;12.90;99.90;;;;;;4994575;28;20266;-72
2021/09/29 02:21:38;;;;;;;6.37;4.83;;;12.90;99.90;;;;;;4994068;28;20708;-72
2021/09/29 02:24:07;;;;;;;7.40;4.90;;;12.90;99.90;;;;;;4988254;28;20742;-73
2021/09/29 02:26:35;;;;;;;6.20;4.43;;;12.90;99.90;;;;;;4991383;28;20246;-72
2021/09/29 02:29:06;;;;;;;7.33;4.30;;;12.80;99.90;;;;;;4993465;28;20323;-72
2021/09/29 02:31:35;;;;;;;4.73;4.20;;;12.60;99.90;;;;;;4992260;28;20653;-72
2021/09/29 02:34:04;;;;;;;5.90;4.70;;;12.50;99.90;;;;;;4991912;28;20328;-71
2021/09/29 02:36:32;;;;;;;5.80;4.73;;;12.40;99.90;;;;;;4989855;28;20240;-72
2021/09/29 02:39:01;;;;;;;5.67;4.73;;;12.40;99.90;;;;;;4995683;28;20236;-73
2021/09/29 02:41:29;;;;;;;6.37;4.50;;;12.40;99.90;;;;;;4989596;28;20288;-71
2021/09/29 02:43:57;;;;;;;5.63;4.17;;;12.40;99.90;;;;;;4991159;28;20331;-72
2021/09/29 02:46:26;;;;;;;6.80;4.67;;;12.30;99.90;;;;;;4995116;28;20247;-72
2021/09/29 02:48:55;;;;;;;7.90;4.27;;;12.30;99.90;;;;;;4987774;28;20278;-72
2021/09/29 02:51:23;;;;;;;6.43;4.07;;;12.20;99.90;;;;;;4992646;28;20242;-72
2021/09/29 02:53:51;;;;;;;6.80;4.20;;;12.20;99.90;;;;;;4995579;28;20240;-72
2021/09/29 02:56:19;;;;;;;6.60;4.10;;;12.30;99.90;;;;;;4998783;28;20231;-72
2021/09/29 02:58:47;;;;;;;7.40;4.33;;;12.20;99.90;;;;;;4998855;28;20252;-73
2021/09/29 03:01:15;;;;;;;6.97;3.87;;;12.30;99.90;;;;;;4994281;28;20251;-72
2021/09/29 03:03:45;;;;;;;6.70;4.30;;;12.30;99.90;;;;;;4990492;28;20245;-71
2021/09/29 03:06:13;;;;;;;7.63;4.47;;;12.20;99.90;;;;;;4988681;28;20601;-72
2021/09/29 03:08:42;;;;;;;7.23;4.10;;;12.30;99.90;;;;;;4992528;28;20412;-72
2021/09/29 03:11:11;;;;;;;6.67;4.27;;;12.30;99.90;;;;;;4990038;28;20296;-71
2021/09/29 03:13:39;;;;;;;6.00;4.60;;;12.20;99.90;;;;;;4993676;28;20243;-71
2021/09/29 03:16:07;;;;;;;7.97;4.37;;;12.20;99.90;;;;;;4997709;28;20315;-72
2021/09/29 03:18:35;;;;;;;5.43;4.03;;;12.20;99.90;;;;;;4983218;28;20324;-72
2021/09/29 03:21:05;;;;;;;7.03;3.60;;;12.20;99.90;;;;;;4987096;28;20232;-71
2021/09/29 03:23:33;;;;;;;7.10;4.33;;;12.20;99.90;;;;;;4985761;28;20772;-72
2021/09/29 03:26:01;;;;;;;4.63;3.97;;;12.10;99.90;;;;;;4989916;28;20236;-71
2021/09/29 03:28:29;;;;;;;5.23;4.00;;;12.10;99.90;;;;;;4979057;28;20319;-71
2021/09/29 03:30:57;;;;;;;7.10;4.10;;;12.20;99.90;;;;;;4988908;28;20239;-72
2021/09/29 03:33:26;;;;;;;6.53;3.77;;;12.20;99.90;;;;;;4987708;28;20622;-71
2021/09/29 03:35:54;;;;;;;4.63;3.50;;;12.20;99.90;;;;;;4992585;28;20244;-72
2021/09/29 03:38:25;;;;;;;6.23;4.03;;;12.20;99.90;;;;;;4988392;28;20605;-71
2021/09/29 03:40:53;;;;;;;7.53;3.90;;;12.10;99.90;;;;;;4988628;28;20652;-72
2021/09/29 03:43:21;;;;;;;6.83;3.70;;;12.20;99.90;;;;;;4992762;28;20246;-72
2021/09/29 03:45:49;;;;;;;4.90;3.53;;;12.20;99.90;;;;;;4994265;28;20279;-72
2021/09/29 03:48:17;;;;;;;4.83;3.47;;;12.20;99.90;;;;;;4990458;28;20237;-72
2021/09/29 03:50:47;;;;;;;5.07;3.63;;;12.20;99.90;;;;;;4986844;28;20275;-71
2021/09/29 03:53:15;;;;;;;6.07;3.70;;;12.20;99.90;;;;;;4984993;28;20242;-72
2021/09/29 03:55:44;;;;;;;4.80;3.57;;;12.20;99.90;;;;;;4994949;28;20646;-73
2021/09/29 03:58:12;;;;;;;3.77;3.43;;;12.30;99.90;;;;;;4991631;28;20237;-72
2021/09/29 04:00:41;;;;;;;5.20;3.70;;;12.30;99.90;;;;;;4991192;28;20276;-71
2021/09/29 04:03:10;;;;;;;6.87;3.80;;;12.20;99.90;;;;;;4981958;28;20235;-74
2021/09/29 04:05:39;;;;;;;6.27;3.50;;;12.30;99.90;;;;;;4996380;28;20278;-73
2021/09/29 04:08:07;;;;;;;6.43;3.53;;;12.30;99.90;;;;;;4994201;28;20240;-73
2021/09/29 04:10:35;;;;;;;7.83;4.23;;;12.30;99.90;;;;;;4993525;28;20277;-72
2021/09/29 04:13:06;;;;;;;6.37;3.60;;;12.30;99.90;;;;;;4995565;28;20257;-72
2021/09/29 04:15:35;;;;;;;4.80;3.60;;;12.30;99.90;;;;;;4991821;28;20327;-72
2021/09/29 04:18:03;;;;;;;5.20;3.83;;;12.30;99.90;;;;;;4990466;28;20255;-71
2021/09/29 04:20:31;;;;;;;6.87;3.67;;;12.30;99.90;;;;;;4997164;28;20237;-71
2021/09/29 04:23:00;;;;;;;4.07;3.43;;;12.30;99.90;;;;;;4993486;28;20914;-71
2021/09/29 04:25:28;;;;;;;5.47;3.40;;;12.30;99.90;;;;;;4976765;28;20602;-71
2021/09/29 04:27:56;;;;;;;4.67;3.37;;;12.30;99.90;;;;;;4987381;28;20283;-71
2021/09/29 04:30:27;;;;;;;6.57;3.47;;;12.40;99.90;;;;;;4997870;28;20241;-71
2021/09/29 04:32:58;;;;;;;7.90;4.10;;;12.40;99.90;;;;;;4992745;28;20249;-70
2021/09/29 04:35:26;;;;;;;6.80;4.43;;;12.40;99.90;;;;;;4996919;28;20351;-70
2021/09/29 04:37:54;;;;;;;9.53;4.70;;;12.40;99.90;;;;;;4998752;28;20837;-70
2021/09/29 04:40:22;;;;;;;5.87;3.33;;;12.40;99.90;;;;;;4995027;28;20733;-70
2021/09/29 04:42:51;;;;;;;5.83;3.87;;;12.30;99.90;;;;;;4986936;28;20243;-70
2021/09/29 04:45:19;;;;;;;6.27;3.53;;;12.40;99.90;;;;;;4997451;28;20247;-71
2021/09/29 04:47:48;;;;;;;6.50;3.23;;;12.40;99.90;;;;;;4976265;28;20241;-71
2021/09/29 04:50:18;;;;;;;4.53;3.40;;;12.40;99.90;;;;;;4989404;28;20241;-71
2021/09/29 04:52:46;;;;;;;7.77;3.60;;;12.40;99.90;;;;;;4987181;28;20251;-70
2021/09/29 04:55:15;;;;;;;10.40;3.70;;;12.40;99.90;;;;;;4992212;28;20700;-71
2021/09/29 04:57:43;;;;;;;4.57;3.33;;;12.40;99.90;;;;;;4991483;28;20233;-70
2021/09/29 05:00:12;;;;;;;7.37;3.87;;;12.40;99.90;;;;;;4991005;28;20240;-70
2021/09/29 05:02:45;;;;;;;5.77;3.33;;;12.50;99.90;;;;;;4994964;28;20254;-70
2021/09/29 05:05:15;;;;;;;6.77;3.00;;;12.50;99.90;;;;;;4992773;28;20266;-71
2021/09/29 05:07:48;;;;;;;6.80;3.10;;;12.40;99.90;;;;;;4997183;28;20268;-70
2021/09/29 05:10:18;;;;;;;7.00;3.30;;;12.40;99.90;;;;;;4998799;28;20322;-71
2021/09/29 05:12:48;;;;;;;5.87;3.50;;;12.40;99.90;;;;;;4977849;28;20325;-70
2021/09/29 05:15:17;;;;;;;8.43;3.43;;;12.60;99.90;;;;;;4994562;28;20307;-71
2021/09/29 05:17:45;;;;;;;4.77;2.83;;;12.60;99.90;;;;;;4994193;28;20234;-70
2021/09/29 05:20:14;;;;;;;5.73;3.40;;;12.50;99.90;;;;;;4993980;28;20696;-71
2021/09/29 05:22:42;;;;;;;8.77;3.70;;;12.50;99.90;;;;;;4988622;28;20240;-71
2021/09/29 05:25:11;;;;;;;4.57;2.83;;;12.50;99.90;;;;;;4988796;28;20568;-70
2021/09/29 05:27:39;;;;;;;5.53;3.63;;;12.50;99.90;;;;;;4999616;28;20237;-72
2021/09/29 05:30:11;;;;;;;6.50;3.87;;;12.50;99.90;;;;;;4999844;28;20570;-71
2021/09/29 05:32:40;;;;;;;5.23;3.17;;;12.50;99.90;;;;;;4986017;28;20244;-71
2021/09/29 05:35:08;;;;;;;6.77;3.40;;;12.50;99.90;;;;;;4998323;28;20246;-71
2021/09/29 05:37:38;;;;;;;6.50;3.60;;;12.50;99.90;;;;;;4986782;28;20255;-71
2021/09/29 05:40:08;;;;;;;4.20;3.10;;;12.60;99.90;;;;;;4986390;28;20245;-70
2021/09/29 05:42:36;;;;;;;6.87;3.63;;;12.60;99.90;;;;;;4990625;28;20348;-71
2021/09/29 05:45:05;;;;;;;6.87;3.37;;;12.60;99.90;;;;;;4988308;28;20248;-71
2021/09/29 05:47:34;;;;;;;5.50;3.40;;;12.60;99.90;;;;;;4987201;28;20249;-71
2021/09/29 05:50:02;;;;;;;7.30;3.20;;;12.60;99.90;;;;;;4983161;28;20229;-71
2021/09/29 05:52:30;;;;;;;5.87;3.23;;;12.60;99.90;;;;;;4987819;28;22989;-71
2021/09/29 05:55:00;;;;;;;7.10;3.93;;;12.60;99.90;;;;;;4992325;28;20236;-70
2021/09/29 05:57:29;;;;;;;5.63;3.50;;;12.60;99.90;;;;;;4997008;28;20326;-71
2021/09/29 05:59:57;;;;;;;8.97;3.60;;;12.60;99.90;;;;;;4991583;28;20275;-71
2021/09/29 06:02:25;;;;;;;7.00;3.23;;;12.50;99.90;;;;;;4987176;28;20663;-71
2021/09/29 06:04:54;;;;;;;4.80;3.60;;;12.50;99.90;;;;;;4990105;28;20244;-70
2021/09/29 06:07:22;;;;;;;5.83;3.17;;;12.50;99.90;;;;;;4991666;28;20247;-71
2021/09/29 06:09:50;;;;;;;4.47;3.60;;;12.50;99.90;;;;;;4993139;28;20323;-71
2021/09/29 06:12:19;;;;;;;7.03;3.67;;;12.50;99.90;;;;;;4989843;28;20237;-71
2021/09/29 06:14:51;;;;;;;6.67;3.93;;;12.50;99.90;;;;;;4990450;28;20681;-70
2021/09/29 06:17:23;;;;;;;8.47;3.80;;;12.50;99.90;;;;;;4990226;28;20776;-71
2021/09/29 06:19:53;;;;;;;5.73;3.70;;;12.60;99.90;;;;;;4982038;28;20252;-70
2021/09/29 06:22:23;;;;;;;8.93;3.47;;;12.60;99.90;;;;;;4986397;28;20238;-71
2021/09/29 06:24:51;;;;;;;8.63;4.03;;;12.70;99.90;;;;;;4981617;28;20328;-71
2021/09/29 06:27:20;;;;;;;5.90;3.83;;;12.70;99.90;;;;;;4987272;28;20245;-71
2021/09/29 06:29:48;;;;;;;8.17;4.20;;;12.70;99.90;;;;;;4980520;28;20250;-71
2021/09/29 06:32:17;;;;;;;6.10;3.80;;;12.70;99.90;;;;;;4988832;28;20250;-70
2021/09/29 06:34:45;;;;;;;6.97;3.97;;;12.80;99.90;;;;;;4994901;28;20295;-71
2021/09/29 06:37:13;;;;;;;5.97;4.07;;;12.80;99.90;;;;;;4978028;28;20236;-71
2021/09/29 06:39:41;;;;;;;6.30;3.63;;;12.80;99.90;;;;;;4981930;28;20580;-70
2021/09/29 06:42:10;;;;;;;6.53;4.10;;;12.90;99.90;;;;;;4989304;28;20324;-70
2021/09/29 06:44:39;;;;;;;6.73;4.10;;;12.90;99.90;;;;;;4983127;28;20263;-70
2021/09/29 06:47:07;;;;;;;5.03;3.80;;;12.90;99.90;;;;;;4988224;28;20241;-70
2021/09/29 06:49:36;;;;;;;9.53;4.30;;;13.00;99.90;;;;;;4991526;28;20713;-70
2021/09/29 06:52:05;;;;;;;7.07;4.07;;;13.00;99.90;;;;;;4988823;28;20241;-70
2021/09/29 06:54:33;;;;;;;5.50;4.00;;;13.00;99.90;;;;;;4988418;28;20240;-70
2021/09/29 06:57:02;;;;;;;5.13;3.97;;;13.10;99.90;;;;;;4987248;28;21215;-70
2021/09/29 06:59:30;;;;;;;6.20;4.40;;;13.20;99.90;;;;;;4983984;28;20233;-70
2021/09/29 07:01:59;;;;;;;8.07;4.70;;;13.20;99.90;;;;;;4986355;28;20767;-70
2021/09/29 07:04:28;;;;;;;6.13;4.50;;;13.30;99.90;;;;;;4980977;28;20675;-70
2021/09/29 07:06:56;;;;;;;10.47;5.10;;;13.30;99.90;;;;;;4991389;28;20602;-70
2021/09/29 07:09:24;;;;;;;7.13;4.83;;;13.30;99.90;;;;;;4994714;28;20245;-70
2021/09/29 07:11:54;;;;;;;4.83;4.40;;;13.30;99.90;;;;;;4994927;28;20268;-70
2021/09/29 07:14:23;;;;;;;9.13;4.87;;;13.40;99.90;;;;;;4993043;28;20271;-70
2021/09/29 07:16:52;;;;;;;4.70;4.30;;;13.40;99.90;;;;;;4993195;28;20303;-70
2021/09/29 07:19:22;;;;;;;7.80;4.80;;;13.40;99.90;;;;;;4996541;28;20243;-70
2021/09/29 07:21:50;;;;;;;5.83;4.87;;;13.40;99.90;;;;;;4992228;28;20236;-70
2021/09/29 07:24:18;;;;;;;8.07;4.97;;;13.40;99.90;;;;;;4993260;28;20271;-70
2021/09/29 07:26:46;;;;;;;6.13;4.63;;;13.40;99.90;;;;;;4992253;28;20237;-70
2021/09/29 07:29:14;;;;;;;6.97;5.57;;;13.50;99.90;;;;;;4995346;28;20267;-70
2021/09/29 07:31:42;;;;;;;7.53;5.10;;;13.50;99.90;;;;;;4986886;28;20610;-70
2021/09/29 07:34:11;;;;;;;8.73;5.17;;;13.60;99.90;;;;;;4992520;28;20241;-70
2021/09/29 07:36:41;;;;;;;9.10;5.10;;;13.60;99.90;;;;;;4998455;28;20241;-70
2021/09/29 07:39:09;;;;;;;7.40;5.17;;;13.60;99.90;;;;;;4996628;28;20295;-70
2021/09/29 07:41:37;;;;;;;10.80;5.50;;;13.70;99.90;;;;;;5001102;28;20259;-70
2021/09/29 07:44:06;;;;;;;11.27;5.60;;;13.60;99.90;;;;;;5000687;28;20628;-70
2021/09/29 07:46:35;;;;;;;8.53;5.10;;;13.70;99.90;;;;;;4992723;28;20606;-70
2021/09/29 07:49:04;;;;;;;8.40;5.27;;;13.80;99.90;;;;;;4980574;28;20244;-69
2021/09/29 07:51:32;;;;;;;11.73;5.77;;;13.90;99.90;;;;;;4979115;28;20741;-69
2021/09/29 07:54:01;;;;;;;8.77;5.70;;;14.10;99.90;;;;;;4981127;28;20269;-70
2021/09/29 07:56:29;;;;;;;9.10;5.40;;;14.20;99.90;;;;;;4987833;28;20580;-70
2021/09/29 07:58:58;;;;;;;9.80;5.67;;;14.20;99.90;;;;;;4997733;28;20244;-70
2021/09/29 08:01:26;;;;;;;7.47;5.73;;;14.20;99.90;;;;;;4990280;28;20571;-69
2021/09/29 08:03:55;;;;;;;7.63;5.87;;;14.30;99.90;;;;;;4995284;28;20248;-70
2021/09/29 08:06:23;;;;;;;8.63;5.70;;;14.30;99.90;;;;;;4997069;28;20754;-70
2021/09/29 08:08:53;;;;;;;10.53;6.30;;;14.30;99.90;;;;;;4991236;28;20320;-70
2021/09/29 08:11:23;;;;;;;7.47;5.30;;;14.40;99.90;;;;;;4995744;28;20312;-70
2021/09/29 08:13:51;;;;;;;10.93;6.10;;;14.40;99.90;;;;;;4992546;28;20364;-70
2021/09/29 08:16:19;;;;;;;7.20;5.37;;;14.50;99.90;;;;;;4988045;28;20237;-70
2021/09/29 08:18:47;;;;;;;7.73;5.90;;;14.40;99.90;;;;;;4992140;28;20753;-70
2021/09/29 08:21:17;;;;;;;8.63;5.83;;;14.50;99.90;;;;;;4994459;28;20236;-70
2021/09/29 08:23:49;;;;;;;8.13;5.90;;;14.60;99.90;;;;;;4993014;28;20272;-70
2021/09/29 08:32:24;;;;;;;9.80;5.93;;;14.70;99.90;;;;;;4930471;28;20235;-69
2021/09/29 08:34:56;;;;;;;9.00;5.80;;;14.80;99.90;;;;;;4978250;28;20329;-70
2021/09/29 08:37:35;;;;;;;6.80;6.10;;;14.80;99.90;;;;;;4995847;28;20528;-70
2021/09/29 08:45:55;;;;;;;9.23;6.30;;;15.10;99.90;;;;;;4977812;28;20298;-70
2021/09/29 08:48:33;;;;;;;12.03;6.67;;;15.20;99.90;;;;;;4986470;28;20295;-70
2021/09/29 09:16:30;;;;;;;7.20;5.27;;;17.30;99.90;;;;;;4998426;28;20241;-70
2021/09/29 09:19:03;;;;;;;7.30;5.50;;;17.20;99.90;;;;;;4990999;28;20235;-69
2021/09/29 09:21:31;;;;;;;7.43;4.87;;;17.30;99.90;;;;;;4981402;28;20752;-69
2021/09/29 09:24:16;;;;;;;5.57;4.67;;;17.60;99.90;;;;;;4997771;28;20232;-69
2021/09/29 09:26:45;;;;;;;7.73;4.83;;;17.80;99.90;;;;;;4995048;28;20253;-70
2021/09/29 09:29:13;;;;;;;8.23;5.10;;;18.10;99.90;;;;;;4992613;28;20583;-69
2021/09/29 09:31:42;;;;;;;5.43;4.23;;;18.10;99.90;;;;;;4985837;28;20245;-69
2021/09/29 09:34:12;;;;;;;5.07;4.30;;;18.40;99.90;;;;;;4995724;28;20237;-69
2021/09/29 09:36:43;;;;;;;7.07;5.33;;;18.50;99.90;;;;;;4999823;28;20588;-69
2021/09/29 09:39:16;;;;;;;7.83;4.87;;;18.50;99.90;;;;;;4999137;28;20238;-69
2021/09/29 09:41:49;;;;;;;6.13;4.53;;;18.20;99.90;;;;;;4998621;28;20329;-69
2021/09/29 09:44:23;;;;;;;7.73;4.73;;;18.20;99.90;;;;;;4997592;28;20272;-69
2021/09/29 09:47:01;;;;;;;5.07;4.50;;;18.40;99.90;;;;;;4991569;28;20297;-69
2021/09/29 09:49:32;;;;;;;5.40;4.47;;;18.60;99.90;;;;;;4983935;28;20286;-69
2021/09/29 09:52:01;;;;;;;9.23;4.60;;;18.80;99.90;;;;;;4993811;28;20240;-69
2021/09/29 09:54:39;;;;;;;5.08;4.06;;;18.90;99.90;;;;;;3810660;28;10003196;-69
2021/09/29 09:57:19;;;;;;;8.73;4.67;;;18.70;99.90;;;;;;2066357;28;10002019;-69
2021/09/29 09:59:49;;;;;;;7.07;4.70;;;18.50;99.90;;;;;;4992173;28;21084;-69
2021/09/29 10:02:17;;;;;;;7.30;4.20;;;18.20;99.90;;;;;;4989415;28;20237;-69
2021/09/29 10:04:48;;;;;;;7.47;4.43;;;18.10;99.90;;;;;;4995422;28;20274;-69
2021/09/29 10:07:16;;;;;;;5.87;4.13;;;18.10;99.90;;;;;;4997579;28;20293;-69
2021/09/29 10:09:48;;;;;;;6.57;4.20;;;18.30;99.90;;;;;;4992005;28;20267;-69
2021/09/29 10:12:21;;;;;;;8.37;4.30;;;18.60;99.90;;;;;;4995532;28;20627;-69
2021/09/29 10:23:24;;;;;;;6.80;4.93;;;18.20;99.90;;;;;;4973852;28;20349;-69
2021/09/29 10:26:08;;;;;;;6.87;4.67;;;18.00;99.90;;;;;;4985232;28;20247;-69
2021/09/29 10:28:38;;;;;;;6.57;4.67;;;17.90;99.90;;;;;;4979019;28;20251;-68
2021/09/29 10:31:18;;;;;;;5.57;4.40;;;17.90;99.90;;;;;;4976552;28;20318;-69
2021/09/29 10:33:58;;;;;;;10.57;4.97;;;18.00;99.90;;;;;;4980368;28;20235;-68
2021/09/29 10:36:41;;;;;;;8.07;4.37;;;18.10;99.90;;;;;;4982056;28;20263;-69
2021/09/29 10:42:07;;;;;;;5.93;3.90;;;19.00;99.90;;;;;;4968833;28;20266;-68
2021/09/29 10:47:40;;;;;;;5.43;4.07;;;20.10;99.90;;;;;;4981707;28;20318;-68
2021/09/29 11:04:48;;;;;;;5.20;3.10;;;20.00;99.90;;;;;;4984932;28;20244;-69
2021/09/29 11:29:47;;;;;;;6.93;2.50;;;20.80;99.90;;;;;;4981338;28;20299;-67
2021/09/29 11:32:25;;;;;;;6.60;3.13;;;20.70;99.90;;;;;;4976609;28;20246;-68
2021/09/29 11:34:55;;;;;;;6.90;2.80;;;20.70;99.90;;;;;;4980041;28;20240;-68
2021/09/29 12:08:37;;;;;;;4.43;2.03;;;19.30;99.90;;;;;;4982707;28;20247;-68
2021/09/29 12:11:09;;;;;;;3.67;1.70;;;19.30;99.90;;;;;;4979903;28;20396;-68
2021/09/29 12:13:49;;;;;;;5.87;2.27;;;19.40;99.90;;;;;;4979950;28;20267;-66
2021/09/29 12:16:28;;;;;;;5.50;2.37;;;19.40;99.90;;;;;;4987576;28;20247;-68
2021/09/29 12:19:00;;;;;;;4.53;2.03;;;19.40;99.90;;;;;;4989943;28;20344;-68
2021/09/29 12:21:36;;;;;;;6.17;2.33;;;19.40;99.90;;;;;;4983423;28;20243;-68
2021/09/29 12:24:07;;;;;;;7.57;2.13;;;19.40;99.90;;;;;;4992299;28;20244;-68
2021/09/29 12:26:49;;;;;;;4.57;2.10;;;19.50;99.90;;;;;;4994556;28;20341;-68
2021/09/29 12:29:25;;;;;;;4.37;2.43;;;19.50;99.90;;;;;;4997327;28;20267;-68
2021/09/29 12:32:09;;;;;;;3.53;2.20;;;19.20;99.90;;;;;;4988570;28;20628;-68
2021/09/29 12:34:49;;;;;;;7.17;2.17;;;18.90;99.90;;;;;;4983965;28;20768;-68
2021/09/29 12:37:17;;;;;;;6.03;2.47;;;18.70;99.90;;;;;;4992415;28;20328;-68
2021/09/29 12:39:46;;;;;;;3.57;1.93;;;18.60;99.90;;;;;;4997388;28;20252;-68
2021/09/29 12:42:33;;;;;;;5.17;2.07;;;18.60;99.90;;;;;;4993006;28;20275;-68
2021/09/29 12:45:07;;;;;;;9.13;2.03;;;18.50;99.90;;;;;;4986405;28;20609;-69
2021/09/29 12:47:39;;;;;;;4.37;1.90;;;18.30;99.90;;;;;;4983337;28;20232;-71
2021/09/29 12:50:15;;;;;;;5.63;1.80;;;18.00;99.90;;;;;;4985520;28;20271;-71
2021/09/29 12:52:52;;;;;;;4.93;2.10;;;17.70;99.90;;;;;;4981751;28;20295;-70
2021/09/29 12:55:22;;;;;;;4.30;1.60;;;17.60;99.90;;;;;;4983242;28;20236;-70
2021/09/29 12:57:50;;;;;;;5.87;2.23;;;17.50;99.90;;;;;;4980536;28;20596;-70
2021/09/29 13:00:18;;;;;;;5.80;2.37;;;17.40;99.90;;;;;;4979335;28;20243;-71
2021/09/29 13:02:48;;;;;;;5.90;2.30;;;17.30;99.90;;;;;;4982403;28;20658;-70
2021/09/29 13:05:16;;;;;;;5.40;2.60;;;17.20;99.90;;;;;;4980779;28;20231;-70
2021/09/29 13:07:45;;;;;;;6.20;2.70;;;17.20;99.90;;;;;;4982810;28;20725;-70
2021/09/29 13:10:13;;;;;;;3.77;2.20;;;17.20;99.90;;;;;;4980756;28;20586;-70
2021/09/29 13:12:41;;;;;;;5.07;2.70;;;17.20;99.90;;;;;;4981760;28;20426;-70
2021/09/29 13:15:11;;;;;;;7.47;2.60;;;17.20;99.90;;;;;;4982961;28;20254;-71
2021/09/29 13:17:39;;;;;;;4.70;2.67;;;17.10;99.90;;;;;;4988304;28;20241;-70
2021/09/29 13:20:15;;;;;;;5.93;2.77;;;17.00;99.90;;;;;;4981772;28;20282;-70
2021/09/29 13:22:46;;;;;;;5.43;2.50;;;16.90;99.90;;;;;;4993419;28;20303;-71
2021/09/29 13:36:37;;;;;;;5.07;3.30;;;16.60;99.90;;;;;;4987647;28;20238;-70
2021/09/29 13:39:09;;;;;;;5.20;3.40;;;16.60;99.90;;;;;;4985098;28;20240;-70
2021/09/29 13:41:40;;;;;;;3.97;2.83;;;16.60;99.90;;;;;;4984120;28;20534;-71
2021/09/29 13:44:09;;;;;;;6.67;3.87;;;16.50;99.90;;;;;;4979538;28;20230;-71
2021/09/29 13:46:38;;;;;;;4.90;3.00;;;16.40;99.90;;;;;;4983984;28;20241;-71
2021/09/29 13:49:08;;;;;;;5.13;3.20;;;16.40;99.90;;;;;;4979877;28;20253;-70
2021/09/29 13:51:38;;;;;;;6.60;3.87;;;16.30;99.90;;;;;;4984987;28;20231;-71
2021/09/29 13:54:09;;;;;;;6.17;4.00;;;16.30;99.90;;;;;;4983500;28;20244;-70
2021/09/29 13:56:49;;;;;;;8.20;4.20;;;16.20;99.90;;;;;;4982831;28;20234;-71
2021/09/29 13:59:32;;;;;;;9.23;3.83;;;16.20;99.90;;;;;;4980867;28;20244;-71
2021/09/29 14:02:21;;;;;;;7.67;3.73;;;16.20;99.90;;;;;;4980271;28;20710;-71
2021/09/29 14:29:48;;;;;;;7.27;3.40;;;15.80;99.90;;;;;;4960493;28;20243;-70
2021/09/29 14:32:20;;;;;;;5.80;3.30;;;15.70;99.90;;;;;;4968032;28;20316;-70
2021/09/29 14:34:49;;;;;;;8.13;4.63;;;15.70;99.90;;;;;;4973757;28;20738;-70
2021/09/29 14:37:17;;;;;;;5.40;4.50;;;15.70;99.90;;;;;;4976319;28;20599;-70
2021/09/29 14:39:47;;;;;;;7.00;4.33;;;15.70;99.90;;;;;;4978456;28;20237;-71
2021/09/29 14:42:15;;;;;;;9.47;4.53;;;15.70;99.90;;;;;;4986380;28;20622;-70
2021/09/29 14:44:44;;;;;;;6.37;3.60;;;15.60;99.90;;;;;;4978586;28;20246;-70
2021/09/29 14:47:12;;;;;;;3.33;2.50;;;15.50;99.90;;;;;;4976561;28;20599;-69
2021/09/29 14:49:42;;;;;;;2.53;2.30;;;15.30;99.90;;;;;;4970759;28;20245;-70
2021/09/29 14:52:12;;;;;;;3.23;1.50;;;15.20;99.90;;;;;;4985296;28;20247;-71
2021/09/29 14:54:40;;;;;;;4.33;1.83;;;15.00;99.90;;;;;;4995065;28;20242;-71
2021/09/29 14:57:11;;;;;;;3.87;1.50;;;14.90;99.90;;;;;;4997878;28;20240;-71
2021/09/29 14:59:40;;;;;;;2.90;1.40;;;14.90;99.90;;;;;;4975141;28;20254;-71
2021/09/29 15:02:08;;;;;;;2.47;1.37;;;14.90;99.90;;;;;;4981803;28;20562;-71
2021/09/29 15:04:37;;;;;;;2.67;1.37;;;14.80;99.90;;;;;;4980725;28;20246;-70
2021/09/29 15:07:06;;;;;;;3.60;2.10;;;14.80;99.90;;;;;;4980781;28;20238;-70
2021/09/29 15:09:34;;;;;;;3.37;1.93;;;14.80;99.90;;;;;;4981689;28;20237;-71
2021/09/29 15:12:03;;;;;;;3.63;2.73;;;14.80;99.90;;;;;;4981072;28;20230;-71
2021/09/29 15:14:43;;;;;;;4.73;2.17;;;14.70;99.90;;;;;;4979835;28;20336;-70
2021/09/29 15:17:15;;;;;;;2.83;2.00;;;14.70;99.90;;;;;;4977473;28;20324;-70
2021/09/29 15:19:49;;;;;;;2.00;1.80;;;14.70;99.90;;;;;;4977410;28;20280;-70
2021/09/29 15:22:41;;;;;;;2.60;2.23;;;14.60;99.90;;;;;;4978581;28;20262;-70
2021/09/29 15:25:22;;;;;;;1.93;1.73;;;14.60;99.90;;;;;;4977866;28;20242;-70
2021/09/29 15:47:16;;;;;;;2.30;2.07;;;14.50;99.90;;;;;;4981039;28;20237;-69
2021/09/29 15:55:23;;;;;;;3.00;2.37;;;14.40;99.90;;;;;;4973341;28;20234;-69
2021/09/29 16:00:52;;;;;;;3.00;2.67;;;14.40;99.90;;;;;;4958780;28;20584;-69
2021/09/29 16:06:37;;;;;;;3.93;3.10;;;14.30;99.90;;;;;;4938406;28;20235;-70
2021/09/29 16:14:57;;;;;;;3.73;3.20;;;14.30;99.90;;;;;;4984957;28;20301;-70